CSCL Dalian — VRBH4 — position and weather

sailwx.info

Track history (hours):
 
Tides and Currents Weather Stations Pressure Air Temp Water Temp Dewpoint Dewpoint Depression Visibility Wind Speed Wind Dir Waves Ship Positions

CSCL Dalian

Last reported at 2016-Aug-29 18:00 UTC. Time now 2016-Aug-29 23:36 UTC.
Position N 25°30' W 045°06'.

Length 259.8 m; ; draft 11 m.

Type: Ship (hazmat cat A). MMSI: 477014600.

Wind from 090 at 10 knots

Waves 1.0 meters (3 feet), 5 second period

Barometer 1021.3 mb
Air temperature 30.0 ° C
Visibility: greater than 10.8 NM
Dewpoint 22.8 ° C
Water temperature 29.0 ° C

Date/timePositionNaut miles runAvg speedWind from/ knotsBaromVisibWave heightAir tempDewpointWater temp
2016-Aug-29 18:00N 25°30' W 045°06'21618.0 090 / 101021.310.8 1.030.022.829.0
2016-Aug-29 06:00N 27°06' W 041°30'   070 / 111020.310.8 1.526.021.528.0
2016-Aug-25 01:33N 35°53' W 008°28'2717.6
2016-Aug-25 00:00N 35°54' W 007°54'5615.7 100 / 161012.310.8 1.023.019.923.0
2016-Aug-24 20:26N 35°56' W 006°45'58 5.9
2016-Aug-24 10:33N 35°57' W 005°33'7 7.4
2016-Aug-24 09:33N 35°58' W 005°24'11 8.4
2016-Aug-24 08:16N 35°54' W 005°36'6 1.6
2016-Aug-24 04:25N 35°59' W 005°30'5 6.0
2016-Aug-24 03:34N 35°60' W 005°24'9 8.6
2016-Aug-24 02:34N 36°02' W 005°14'21213.2
2016-Aug-23 10:31N 37°13' W 001°04'1718.2
2016-Aug-23 09:33N 37°25' W 000°49'1818.0
2016-Aug-23 08:33N 37°37' W 000°32'1917.8
2016-Aug-23 07:30N 37°52' W 000°19'9014.5
2016-Aug-23 01:19N 39°22' W 000°12'8 9.7
2016-Aug-23 00:32N 39°27' W 000°19'0 0.0
2016-Aug-22 23:29N 39°27' W 000°19'0 0.0
2016-Aug-22 22:33N 39°27' W 000°19'0 0.0
2016-Aug-22 21:34N 39°27' W 000°19'0 0.0
2016-Aug-22 20:33N 39°27' W 000°19'0 0.0
2016-Aug-22 19:33N 39°27' W 000°19'0 0.0
2016-Aug-22 18:34N 39°27' W 000°19'0 0.0
2016-Aug-22 17:33N 39°27' W 000°19'0 0.0
2016-Aug-22 16:33N 39°27' W 000°19'0 0.0
2016-Aug-22 15:34N 39°27' W 000°19'0 0.0
2016-Aug-22 14:33N 39°27' W 000°19'0 0.0
2016-Aug-22 13:34N 39°27' W 000°19'0 0.0
2016-Aug-22 12:33N 39°27' W 000°19'0 0.0
2016-Aug-22 11:33N 39°27' W 000°19'0 0.2
2016-Aug-22 10:33N 39°27' W 000°19'7 7.3
2016-Aug-22 09:33N 39°25' W 000°10'6716.5
2016-Aug-22 05:30N 40°01' E 001°04'1818.6
2016-Aug-22 04:33N 40°16' E 001°17'1918.6
2016-Aug-22 03:33N 40°32' E 001°30'1818.2
2016-Aug-22 02:33N 40°46' E 001°44'1818.0
2016-Aug-22 01:33N 41°01' E 001°57'1817.9
2016-Aug-22 00:33N 41°16' E 002°10'5 4.2
2016-Aug-21 23:23N 41°21' E 002°10'0 0.0
2016-Aug-21 22:32N 41°21' E 002°10'0 0.0
2016-Aug-21 21:26N 41°21' E 002°10'0 0.0
2016-Aug-21 20:29N 41°21' E 002°10'0 0.0
2016-Aug-21 19:32N 41°21' E 002°10'0 0.0
2016-Aug-21 18:32N 41°21' E 002°10'0 0.0
2016-Aug-21 17:31N 41°21' E 002°10'0 0.0
2016-Aug-21 16:33N 41°21' E 002°10'0 0.0
2016-Aug-21 15:33N 41°21' E 002°10'0 0.0
2016-Aug-21 14:33N 41°21' E 002°10'0 0.0
2016-Aug-21 13:33N 41°21' E 002°10'0 0.0
2016-Aug-21 12:33N 41°21' E 002°10'1 0.5
2016-Aug-21 11:33N 41°21' E 002°10'7 6.7
2016-Aug-21 10:33N 41°17' E 002°17'1616.2
2016-Aug-21 09:33N 41°23' E 002°37'12918.3
2016-Aug-21 02:32N 42°53' E 004°41'2018.2
2016-Aug-21 01:27N 43°08' E 004°59'1416.1
2016-Aug-21 00:33N 43°22' E 004°58'5 5.0
2016-Aug-20 23:28N 43°24' E 004°51'0 0.0
2016-Aug-20 22:33N 43°24' E 004°51'0 0.0
2016-Aug-20 21:33N 43°24' E 004°51'0 0.0
2016-Aug-20 20:33N 43°24' E 004°51'0 0.0
2016-Aug-20 19:33N 43°24' E 004°51'0 0.0
2016-Aug-20 18:33N 43°24' E 004°51'0 0.0
2016-Aug-20 17:33N 43°24' E 004°51'0 0.0
2016-Aug-20 16:33N 43°24' E 004°51'0 0.0
2016-Aug-20 15:33N 43°24' E 004°51'0 0.0
2016-Aug-20 14:33N 43°24' E 004°51'0 0.0
2016-Aug-20 13:33N 43°24' E 004°51'0 0.0
2016-Aug-20 12:33N 43°24' E 004°51'0 0.0
2016-Aug-20 11:33N 43°24' E 004°51'0 0.0
2016-Aug-20 10:33N 43°24' E 004°51'0 0.0
2016-Aug-20 09:33N 43°24' E 004°51'0 0.0
2016-Aug-20 08:33N 43°24' E 004°51'0 0.0
2016-Aug-20 07:33N 43°24' E 004°51'0 0.0
2016-Aug-20 06:33N 43°24' E 004°51'0 0.0
2016-Aug-20 05:33N 43°24' E 004°51'0 0.0
2016-Aug-20 04:33N 43°24' E 004°51'0 0.0
2016-Aug-20 03:33N 43°24' E 004°51'1 1.5
2016-Aug-20 02:33N 43°24' E 004°53'10 9.6
2016-Aug-20 01:33N 43°16' E 005°01'1212.1
2016-Aug-20 00:33N 43°07' E 005°11'1312.3
2016-Aug-19 23:33N 42°60' E 005°25'1512.4
2016-Aug-19 22:21N 42°51' E 005°42'1113.1
2016-Aug-19 21:30N 42°49' E 005°57'1613.6
2016-Aug-19 20:20N 42°47' E 006°18'1012.7
2016-Aug-19 19:33N 42°46' E 006°32'1313.2
2016-Aug-19 18:33N 42°54' E 006°46'  
Track history (hours):
 
Tides and Currents Weather Stations Pressure Air Temp Water Temp Dewpoint Dewpoint Depression Visibility Wind Speed Wind Dir Waves Ship Positions

CSCL Dalian

Last reported at 2016-Aug-29 18:00 UTC. Time now 2016-Aug-29 23:36 UTC.
Position N 25°30' W 045°06'.

Length 259.8 m; ; draft 11 m.

Type: Ship (hazmat cat A). MMSI: 477014600.

Wind from 090 at 10 knots

Waves 1.0 meters (3 feet), 5 second period

Barometer 1021.3 mb
Air temperature 30.0 ° C
Visibility: greater than 10.8 NM
Dewpoint 22.8 ° C
Water temperature 29.0 ° C

Date/timePositionNaut miles runAvg speedWind from/ knotsBaromVisibWave heightAir tempDewpointWater temp
2016-Aug-29 18:00N 25°30' W 045°06'21618.0 090 / 101021.310.8 1.030.022.829.0
2016-Aug-29 06:00N 27°06' W 041°30'   070 / 111020.310.8 1.526.021.528.0
2016-Aug-25 01:33N 35°53' W 008°28'2717.6
2016-Aug-25 00:00N 35°54' W 007°54'5615.7 100 / 161012.310.8 1.023.019.923.0
2016-Aug-24 20:26N 35°56' W 006°45'58 5.9
2016-Aug-24 10:33N 35°57' W 005°33'7 7.4
2016-Aug-24 09:33N 35°58' W 005°24'11 8.4
2016-Aug-24 08:16N 35°54' W 005°36'6 1.6
2016-Aug-24 04:25N 35°59' W 005°30'5 6.0
2016-Aug-24 03:34N 35°60' W 005°24'9 8.6
2016-Aug-24 02:34N 36°02' W 005°14'21213.2
2016-Aug-23 10:31N 37°13' W 001°04'1718.2
2016-Aug-23 09:33N 37°25' W 000°49'1818.0
2016-Aug-23 08:33N 37°37' W 000°32'1917.8
2016-Aug-23 07:30N 37°52' W 000°19'9014.5
2016-Aug-23 01:19N 39°22' W 000°12'8 9.7
2016-Aug-23 00:32N 39°27' W 000°19'0 0.0
2016-Aug-22 23:29N 39°27' W 000°19'0 0.0
2016-Aug-22 22:33N 39°27' W 000°19'0 0.0
2016-Aug-22 21:34N 39°27' W 000°19'0 0.0
2016-Aug-22 20:33N 39°27' W 000°19'0 0.0
2016-Aug-22 19:33N 39°27' W 000°19'0 0.0
2016-Aug-22 18:34N 39°27' W 000°19'0 0.0
2016-Aug-22 17:33N 39°27' W 000°19'0 0.0
2016-Aug-22 16:33N 39°27' W 000°19'0 0.0
2016-Aug-22 15:34N 39°27' W 000°19'0 0.0
2016-Aug-22 14:33N 39°27' W 000°19'0 0.0
2016-Aug-22 13:34N 39°27' W 000°19'0 0.0
2016-Aug-22 12:33N 39°27' W 000°19'0 0.0
2016-Aug-22 11:33N 39°27' W 000°19'0 0.2
2016-Aug-22 10:33N 39°27' W 000°19'7 7.3
2016-Aug-22 09:33N 39°25' W 000°10'6716.5
2016-Aug-22 05:30N 40°01' E 001°04'1818.6
2016-Aug-22 04:33N 40°16' E 001°17'1918.6
2016-Aug-22 03:33N 40°32' E 001°30'1818.2
2016-Aug-22 02:33N 40°46' E 001°44'1818.0
2016-Aug-22 01:33N 41°01' E 001°57'1817.9
2016-Aug-22 00:33N 41°16' E 002°10'5 4.2
2016-Aug-21 23:23N 41°21' E 002°10'0 0.0
2016-Aug-21 22:32N 41°21' E 002°10'0 0.0
2016-Aug-21 21:26N 41°21' E 002°10'0 0.0
2016-Aug-21 20:29N 41°21' E 002°10'0 0.0
2016-Aug-21 19:32N 41°21' E 002°10'0 0.0
2016-Aug-21 18:32N 41°21' E 002°10'0 0.0
2016-Aug-21 17:31N 41°21' E 002°10'0 0.0
2016-Aug-21 16:33N 41°21' E 002°10'0 0.0
2016-Aug-21 15:33N 41°21' E 002°10'0 0.0
2016-Aug-21 14:33N 41°21' E 002°10'0 0.0
2016-Aug-21 13:33N 41°21' E 002°10'0 0.0
2016-Aug-21 12:33N 41°21' E 002°10'1 0.5
2016-Aug-21 11:33N 41°21' E 002°10'7 6.7
2016-Aug-21 10:33N 41°17' E 002°17'1616.2
2016-Aug-21 09:33N 41°23' E 002°37'12918.3
2016-Aug-21 02:32N 42°53' E 004°41'2018.2
2016-Aug-21 01:27N 43°08' E 004°59'1416.1
2016-Aug-21 00:33N 43°22' E 004°58'5 5.0
2016-Aug-20 23:28N 43°24' E 004°51'0 0.0
2016-Aug-20 22:33N 43°24' E 004°51'0 0.0
2016-Aug-20 21:33N 43°24' E 004°51'0 0.0
2016-Aug-20 20:33N 43°24' E 004°51'0 0.0
2016-Aug-20 19:33N 43°24' E 004°51'0 0.0
2016-Aug-20 18:33N 43°24' E 004°51'0 0.0
2016-Aug-20 17:33N 43°24' E 004°51'0 0.0
2016-Aug-20 16:33N 43°24' E 004°51'0 0.0
2016-Aug-20 15:33N 43°24' E 004°51'0 0.0
2016-Aug-20 14:33N 43°24' E 004°51'0 0.0
2016-Aug-20 13:33N 43°24' E 004°51'0 0.0
2016-Aug-20 12:33N 43°24' E 004°51'0 0.0
2016-Aug-20 11:33N 43°24' E 004°51'0 0.0
2016-Aug-20 10:33N 43°24' E 004°51'0 0.0
2016-Aug-20 09:33N 43°24' E 004°51'0 0.0
2016-Aug-20 08:33N 43°24' E 004°51'0 0.0
2016-Aug-20 07:33N 43°24' E 004°51'0 0.0
2016-Aug-20 06:33N 43°24' E 004°51'0 0.0
2016-Aug-20 05:33N 43°24' E 004°51'0 0.0
2016-Aug-20 04:33N 43°24' E 004°51'0 0.0
2016-Aug-20 03:33N 43°24' E 004°51'1 1.5
2016-Aug-20 02:33N 43°24' E 004°53'10 9.6
2016-Aug-20 01:33N 43°16' E 005°01'1212.1
2016-Aug-20 00:33N 43°07' E 005°11'1312.3
2016-Aug-19 23:33N 42°60' E 005°25'1512.4
2016-Aug-19 22:21N 42°51' E 005°42'1113.1
2016-Aug-19 21:30N 42°49' E 005°57'1613.6
2016-Aug-19 20:20N 42°47' E 006°18'1012.7
2016-Aug-19 19:33N 42°46' E 006°32'1313.2
2016-Aug-19 18:33N 42°54' E 006°46'  

Dump ship's entire track history